createdAt,value
2023-05-01T00:00:22.181Z,0.55
2023-05-01T00:01:22.125Z,0.57
2023-05-01T00:02:22.224Z,0.55
2023-05-01T00:03:22.270Z,0.59
2023-05-01T00:04:22.229Z,0.58
2023-05-01T00:05:22.232Z,0.54
2023-05-01T00:06:22.263Z,0.61
2023-05-01T00:07:22.298Z,0.59
2023-05-01T00:08:22.288Z,0.55
2023-05-01T00:09:22.321Z,0.55
2023-05-01T00:10:22.358Z,0.57
2023-05-01T00:11:22.367Z,0.55
2023-05-01T00:12:22.395Z,0.56
2023-05-01T00:13:22.429Z,0.57
2023-05-01T00:14:22.463Z,0.58
2023-05-01T00:15:22.503Z,0.55
2023-05-01T00:16:22.551Z,0.57
2023-05-01T00:17:22.573Z,0.56
2023-05-01T00:18:22.580Z,0.57
2023-05-01T00:19:22.612Z,0.58
2023-05-01T00:20:22.635Z,0.55
2023-05-01T00:21:22.649Z,0.56
2023-05-01T00:22:22.671Z,0.58
2023-05-01T00:23:22.804Z,0.55
2023-05-01T00:24:22.756Z,0.57
2023-05-01T00:25:22.772Z,0.57
2023-05-01T00:26:22.762Z,0.60
2023-05-01T00:27:22.831Z,0.60
2023-05-01T00:28:22.860Z,0.56
2023-05-01T00:29:22.848Z,0.56
2023-05-01T00:30:22.904Z,0.59
2023-05-01T00:31:22.936Z,0.57
2023-05-01T00:32:22.964Z,0.56
2023-05-01T00:33:22.951Z,0.57
2023-05-01T00:34:23.001Z,0.58
2023-05-01T00:35:23.025Z,0.55
2023-05-01T00:36:23.039Z,0.57
2023-05-01T00:37:23.457Z,0.57
2023-05-01T00:38:23.094Z,0.57
2023-05-01T00:39:23.131Z,0.56
2023-05-01T00:40:23.129Z,0.59
2023-05-01T00:41:23.165Z,0.58
2023-05-01T00:42:23.208Z,0.58
2023-05-01T00:43:23.217Z,0.57
2023-05-01T00:44:23.248Z,0.58
2023-05-01T00:45:23.295Z,0.60
2023-05-01T00:46:23.366Z,0.57
2023-05-01T00:47:23.396Z,0.57
2023-05-01T00:48:23.349Z,0.59
2023-05-01T00:49:23.385Z,0.57
2023-05-01T00:50:23.417Z,0.56
2023-05-01T00:51:23.452Z,0.58
2023-05-01T00:52:23.467Z,0.59
2023-05-01T00:53:23.482Z,0.56
2023-05-01T00:54:23.490Z,0.58
2023-05-01T00:55:23.563Z,0.55
2023-05-01T00:56:23.604Z,0.57
2023-05-01T00:57:23.968Z,0.55
2023-05-01T00:58:23.622Z,0.57
2023-05-01T00:59:23.654Z,0.58
2023-05-01T01:00:23.669Z,0.57
2023-05-01T01:01:23.758Z,0.56
2023-05-01T01:02:23.769Z,0.57
2023-05-01T01:03:23.770Z,0.58
2023-05-01T01:04:23.820Z,0.55
2023-05-01T01:05:23.831Z,0.56
2023-05-01T01:06:23.947Z,0.55
2023-05-01T01:07:23.858Z,0.55
2023-05-01T01:08:23.875Z,0.58
2023-05-01T01:09:23.913Z,0.57
2023-05-01T01:10:23.911Z,0.57
2023-05-01T01:11:23.929Z,0.54
2023-05-01T01:12:23.994Z,0.58
2023-05-01T01:13:23.990Z,0.59
2023-05-01T01:14:24.030Z,0.56
2023-05-01T01:15:24.053Z,0.55
2023-05-01T01:16:24.142Z,0.56
2023-05-01T01:17:24.185Z,0.58
2023-05-01T01:18:24.175Z,0.57
2023-05-01T01:19:24.128Z,0.57
2023-05-01T01:20:24.143Z,0.57
2023-05-01T01:21:24.211Z,0.54
2023-05-01T01:22:24.240Z,0.56
2023-05-01T01:23:24.224Z,0.55
2023-05-01T01:24:24.271Z,0.57
2023-05-01T01:25:24.287Z,0.57
2023-05-01T01:26:24.310Z,0.54
2023-05-01T01:27:24.343Z,0.58
2023-05-01T01:28:24.348Z,0.56
2023-05-01T01:29:24.396Z,0.56
2023-05-01T01:30:24.415Z,0.56
2023-05-01T01:31:24.490Z,0.56
2023-05-01T01:32:24.514Z,0.56
2023-05-01T01:33:24.490Z,0.55
2023-05-01T01:34:24.507Z,0.56
2023-05-01T01:35:24.529Z,0.55
2023-05-01T01:36:24.550Z,0.57
2023-05-01T01:37:24.607Z,0.57
2023-05-01T01:38:24.630Z,0.55
2023-05-01T01:39:24.644Z,0.56
2023-05-01T01:40:24.681Z,0.55
2023-05-01T01:41:24.685Z,0.56
2023-05-01T01:42:24.965Z,0.58
2023-05-01T01:43:25.442Z,0.57
2023-05-01T01:44:24.762Z,0.58
2023-05-01T01:45:24.820Z,0.54
2023-05-01T01:46:24.845Z,0.58
2023-05-01T01:47:24.886Z,0.54
2023-05-01T01:48:24.905Z,0.60
2023-05-01T01:49:24.937Z,0.55
2023-05-01T01:50:24.973Z,0.55
2023-05-01T01:51:24.975Z,0.56
2023-05-01T01:52:25.007Z,0.57
2023-05-01T01:53:25.027Z,0.57
2023-05-01T01:54:25.036Z,0.55
2023-05-01T01:55:25.064Z,0.53
2023-05-01T01:56:25.093Z,0.55
2023-05-01T01:57:25.180Z,0.55
2023-05-01T01:58:25.150Z,0.57
2023-05-01T01:59:25.264Z,0.57
2023-05-01T02:00:25.252Z,0.57
2023-05-01T02:01:25.347Z,0.57
2023-05-01T02:02:25.361Z,0.56
2023-05-01T02:03:25.371Z,0.55
2023-05-01T02:04:25.343Z,0.56
2023-05-01T02:05:25.355Z,0.55
2023-05-01T02:06:25.444Z,0.56
2023-05-01T02:07:35.966Z,0.58
2023-05-01T02:08:25.416Z,0.58
2023-05-01T02:09:25.398Z,0.58
2023-05-01T02:10:25.487Z,0.57
2023-05-01T02:11:25.399Z,0.59
2023-05-01T02:12:25.435Z,0.56
2023-05-01T02:13:25.397Z,0.58
2023-05-01T02:14:25.354Z,0.54
2023-05-01T02:15:25.344Z,0.56
2023-05-01T02:16:25.454Z,0.56
2023-05-01T02:17:25.368Z,0.56
2023-05-01T02:18:25.336Z,0.56
2023-05-01T02:19:25.302Z,0.56
2023-05-01T02:20:25.324Z,0.56
2023-05-01T02:21:25.306Z,0.56
2023-05-01T02:22:25.480Z,0.57
2023-05-01T02:23:25.291Z,0.56
2023-05-01T02:24:25.277Z,0.56
2023-05-01T02:25:25.268Z,0.57
2023-05-01T02:26:25.289Z,0.57
2023-05-01T02:27:25.285Z,0.55
2023-05-01T02:28:25.256Z,0.57
2023-05-01T02:29:25.234Z,0.56
2023-05-01T02:30:25.251Z,0.56
2023-05-01T02:31:25.391Z,0.55
2023-05-01T02:32:25.300Z,0.57
2023-05-01T02:33:25.227Z,0.58
2023-05-01T02:34:25.238Z,0.58
2023-05-01T02:35:25.189Z,0.55
2023-05-01T02:36:25.220Z,0.54
2023-05-01T02:37:25.231Z,0.57
2023-05-01T02:38:25.225Z,0.56
2023-05-01T02:39:25.267Z,0.57
2023-05-01T02:40:25.276Z,0.56
2023-05-01T02:41:25.303Z,0.55
2023-05-01T02:42:25.316Z,0.56
2023-05-01T02:43:25.340Z,0.57
2023-05-01T02:44:25.357Z,0.56
2023-05-01T02:45:25.441Z,0.57
2023-05-01T02:46:25.527Z,0.56
2023-05-01T02:47:25.525Z,0.56
2023-05-01T02:48:25.480Z,0.56
2023-05-01T02:49:25.501Z,0.56
2023-05-01T02:50:25.527Z,0.55
2023-05-01T02:51:25.571Z,0.57
2023-05-01T02:52:25.621Z,0.55
2023-05-01T02:53:25.650Z,0.57
2023-05-01T02:54:25.668Z,0.56
2023-05-01T02:55:25.683Z,0.56
2023-05-01T02:56:25.729Z,0.55
2023-05-01T02:57:25.745Z,0.55
2023-05-01T02:58:25.789Z,0.57
2023-05-01T02:59:25.825Z,0.57
2023-05-01T03:00:25.860Z,0.58
2023-05-01T03:01:25.986Z,0.53
2023-05-01T03:02:25.902Z,0.56
2023-05-01T03:03:25.926Z,0.57
2023-05-01T03:04:26.026Z,0.55
2023-05-01T03:05:26.038Z,0.55
2023-05-01T03:06:26.135Z,0.55
2023-05-01T03:07:26.075Z,0.56
2023-05-01T03:08:26.096Z,0.54
2023-05-01T03:09:26.116Z,0.56
2023-05-01T03:10:26.131Z,0.53
2023-05-01T03:11:26.523Z,0.56
2023-05-01T03:12:26.232Z,0.55
2023-05-01T03:13:26.218Z,0.57
2023-05-01T03:14:26.222Z,0.54
2023-05-01T03:15:26.290Z,0.56
2023-05-01T03:16:26.323Z,0.56
2023-05-01T03:17:26.438Z,0.57
2023-05-01T03:18:26.340Z,0.57
2023-05-01T03:19:26.389Z,0.56
2023-05-01T03:20:27.543Z,0.55
2023-05-01T03:21:26.498Z,0.55
2023-05-01T03:22:26.502Z,0.54
2023-05-01T03:23:26.508Z,0.57
2023-05-01T03:24:26.542Z,0.56
2023-05-01T03:25:26.573Z,0.55
2023-05-01T03:26:26.667Z,0.56
2023-05-01T03:27:27.040Z,0.55
2023-05-01T03:28:27.501Z,0.55
2023-05-01T03:29:26.712Z,0.57
2023-05-01T03:30:26.737Z,0.55
2023-05-01T03:31:26.805Z,0.55
2023-05-01T03:32:26.922Z,0.57
2023-05-01T03:33:26.861Z,0.56
2023-05-01T03:34:26.860Z,0.56
2023-05-01T03:35:26.986Z,0.57
2023-05-01T03:36:26.933Z,0.57
2023-05-01T03:37:26.980Z,0.56
2023-05-01T03:38:26.984Z,0.57
2023-05-01T03:39:27.031Z,0.54
2023-05-01T03:40:27.067Z,0.56
2023-05-01T03:41:27.096Z,0.57
2023-05-01T03:42:27.151Z,0.55
2023-05-01T03:43:27.125Z,0.54
2023-05-01T03:44:27.176Z,0.55
2023-05-01T03:45:27.212Z,0.54
2023-05-01T03:46:27.289Z,0.54
2023-05-01T03:47:27.354Z,0.55
2023-05-01T03:48:27.315Z,0.55
2023-05-01T03:49:27.386Z,0.53
2023-05-01T03:50:27.371Z,0.57
2023-05-01T03:51:27.430Z,0.54
2023-05-01T03:52:27.487Z,0.57
2023-05-01T03:53:27.495Z,0.56
2023-05-01T03:54:27.551Z,0.56
2023-05-01T03:55:27.554Z,0.55
2023-05-01T03:56:27.606Z,0.56
2023-05-01T03:57:27.650Z,0.56
2023-05-01T03:58:27.700Z,0.57
2023-05-01T03:59:27.716Z,0.56
2023-05-01T04:00:27.729Z,0.57
2023-05-01T04:01:27.802Z,0.56
2023-05-01T04:02:27.966Z,0.55
2023-05-01T04:03:27.922Z,0.56
2023-05-01T04:04:27.898Z,0.56
2023-05-01T04:05:27.912Z,0.55
2023-05-01T04:06:28.052Z,0.54
2023-05-01T04:07:27.991Z,0.52
2023-05-01T04:08:28.051Z,0.57
2023-05-01T04:09:28.018Z,0.56
2023-05-01T04:10:28.074Z,0.54
2023-05-01T04:11:28.086Z,0.57
2023-05-01T04:12:28.126Z,0.57
2023-05-01T04:13:28.158Z,0.55
2023-05-01T04:14:28.222Z,0.55
2023-05-01T04:15:28.276Z,0.53
2023-05-01T04:16:28.369Z,0.56
2023-05-01T04:17:28.359Z,0.56
2023-05-01T04:18:28.341Z,0.54
2023-05-01T04:19:28.402Z,0.54
2023-05-01T04:20:28.442Z,0.53
2023-05-01T04:21:28.478Z,0.57
2023-05-01T04:22:28.555Z,0.56
2023-05-01T04:23:28.650Z,0.57
2023-05-01T04:24:28.588Z,0.53
2023-05-01T04:25:28.669Z,0.55
2023-05-01T04:26:28.647Z,0.56
2023-05-01T04:27:28.686Z,0.57
2023-05-01T04:28:28.729Z,0.57
2023-05-01T04:29:28.765Z,0.53
2023-05-01T04:30:28.786Z,0.54
2023-05-01T04:31:28.889Z,0.56
2023-05-01T04:32:28.889Z,0.57
2023-05-01T04:33:28.987Z,0.54
2023-05-01T04:34:28.944Z,0.56
2023-05-01T04:35:28.998Z,0.53
2023-05-01T04:36:29.018Z,0.55
2023-05-01T04:37:29.071Z,0.56
2023-05-01T04:38:29.104Z,0.55
2023-05-01T04:39:29.146Z,0.55
2023-05-01T04:40:29.157Z,0.55
2023-05-01T04:41:29.194Z,0.56
2023-05-01T04:42:29.213Z,0.55
2023-05-01T04:43:29.264Z,0.57
2023-05-01T04:44:29.327Z,0.53
2023-05-01T04:45:29.325Z,0.57
2023-05-01T04:46:29.439Z,0.53
2023-05-01T04:47:29.428Z,0.53
2023-05-01T04:48:29.478Z,0.57
2023-05-01T04:49:29.496Z,0.56
2023-05-01T04:50:29.512Z,0.55
2023-05-01T04:51:29.605Z,0.55
2023-05-01T04:52:29.659Z,0.55
2023-05-01T04:53:29.630Z,0.56
2023-05-01T04:54:29.687Z,0.54
2023-05-01T04:55:31.118Z,0.54
2023-05-01T04:56:29.730Z,0.56
2023-05-01T04:57:29.774Z,0.52
2023-05-01T04:58:29.797Z,0.56
2023-05-01T04:59:29.870Z,0.53
2023-05-01T05:00:29.873Z,0.56
2023-05-01T05:01:30.082Z,0.57
2023-05-01T05:02:29.993Z,0.55
2023-05-01T05:03:30.057Z,0.55
2023-05-01T05:04:30.015Z,0.53
2023-05-01T05:05:30.068Z,0.54
2023-05-01T05:06:30.118Z,0.55
2023-05-01T05:07:30.123Z,0.55
2023-05-01T05:08:30.131Z,0.55
2023-05-01T05:09:30.182Z,0.56
2023-05-01T05:10:30.213Z,0.56
2023-05-01T05:11:30.325Z,0.54
2023-05-01T05:12:30.310Z,0.54
2023-05-01T05:13:30.386Z,0.55
2023-05-01T05:14:30.369Z,0.57
2023-05-01T05:15:30.406Z,0.53
2023-05-01T05:16:30.510Z,0.52
2023-05-01T05:17:30.531Z,0.54
2023-05-01T05:18:30.523Z,0.53
2023-05-01T05:19:30.576Z,0.55
2023-05-01T05:20:30.624Z,0.53
2023-05-01T05:21:30.652Z,0.53
2023-05-01T05:22:31.052Z,0.55
2023-05-01T05:23:30.727Z,0.54
2023-05-01T05:24:30.757Z,0.53
2023-05-01T05:25:30.803Z,0.56
2023-05-01T05:26:30.838Z,0.55
2023-05-01T05:27:31.091Z,0.53
2023-05-01T05:28:30.895Z,0.53
2023-05-01T05:29:30.922Z,0.53
2023-05-01T05:30:30.992Z,0.55
2023-05-01T05:31:31.052Z,0.56
2023-05-01T05:32:31.199Z,0.52
2023-05-01T05:33:31.105Z,0.56
2023-05-01T05:34:31.174Z,0.53
2023-05-01T05:35:31.182Z,0.54
2023-05-01T05:36:31.288Z,0.56
2023-05-01T05:37:31.275Z,0.54
2023-05-01T05:38:31.304Z,0.52
2023-05-01T05:39:31.352Z,0.55
2023-05-01T05:40:31.380Z,0.56
2023-05-01T05:41:31.402Z,0.53
2023-05-01T05:42:31.435Z,0.53
2023-05-01T05:43:31.467Z,0.53
2023-05-01T05:44:31.508Z,0.54
2023-05-01T05:45:31.528Z,0.55
2023-05-01T05:46:31.698Z,0.56
2023-05-01T05:47:31.600Z,0.54
2023-05-01T05:48:31.674Z,0.54
2023-05-01T05:49:31.654Z,0.55
2023-05-01T05:50:31.711Z,0.54
2023-05-01T05:51:31.744Z,0.54
2023-05-01T05:52:31.774Z,0.56
2023-05-01T05:53:31.780Z,0.51
2023-05-01T05:54:31.832Z,0.54
2023-05-01T05:55:31.858Z,0.55
2023-05-01T05:56:31.885Z,0.56
2023-05-01T05:57:31.964Z,0.55
2023-05-01T05:58:31.984Z,0.55
2023-05-01T05:59:31.993Z,0.55
2023-05-01T06:00:32.041Z,0.54
2023-05-01T06:01:32.096Z,0.54
2023-05-01T06:02:32.327Z,0.55
2023-05-01T06:03:32.201Z,0.56
2023-05-01T06:04:32.155Z,0.55
2023-05-01T06:05:32.221Z,0.53
2023-05-01T06:06:32.259Z,0.55
2023-05-01T06:07:32.265Z,0.53
2023-05-01T06:08:32.318Z,0.53
2023-05-01T06:09:32.321Z,0.56
2023-05-01T06:10:32.363Z,0.54
2023-05-01T06:11:32.407Z,0.55
2023-05-01T06:12:32.440Z,0.55
2023-05-01T06:13:32.459Z,0.55
2023-05-01T06:14:32.461Z,0.53
2023-05-01T06:15:32.592Z,0.53
2023-05-01T06:16:32.731Z,0.56
2023-05-01T06:17:32.588Z,0.53
2023-05-01T06:18:32.657Z,0.53
2023-05-01T06:19:32.638Z,0.52
2023-05-01T06:20:32.708Z,0.53
2023-05-01T06:21:32.720Z,0.52
2023-05-01T06:22:33.094Z,0.55
2023-05-01T06:23:32.899Z,0.55
2023-05-01T06:24:32.822Z,0.55
2023-05-01T06:25:32.838Z,0.55
2023-05-01T06:26:32.934Z,0.55
2023-05-01T06:27:32.926Z,0.56
2023-05-01T06:28:32.950Z,0.54
2023-05-01T06:29:32.977Z,0.54
2023-05-01T06:30:33.005Z,0.56
2023-05-01T06:31:33.117Z,0.55
2023-05-01T06:32:33.122Z,0.54
2023-05-01T06:33:33.138Z,0.54
2023-05-01T06:34:33.169Z,0.53
2023-05-01T06:35:33.189Z,0.53
2023-05-01T06:36:33.224Z,0.53
2023-05-01T06:37:33.272Z,0.52
2023-05-01T06:38:33.292Z,0.54
2023-05-01T06:39:33.301Z,0.52
2023-05-01T06:40:33.375Z,0.54
2023-05-01T06:41:33.390Z,0.53
2023-05-01T06:42:33.406Z,0.55
2023-05-01T06:43:33.428Z,0.53
2023-05-01T06:44:33.460Z,0.55
2023-05-01T06:45:33.477Z,0.54
2023-05-01T06:46:33.590Z,0.53
2023-05-01T06:47:33.658Z,0.55
2023-05-01T06:48:33.662Z,0.56
2023-05-01T06:49:33.644Z,0.53
2023-05-01T06:50:33.675Z,0.56
2023-05-01T06:51:33.690Z,0.54
2023-05-01T06:52:33.720Z,0.53
2023-05-01T06:53:33.726Z,0.54
2023-05-01T06:54:33.781Z,0.53
2023-05-01T06:55:35.284Z,0.54
2023-05-01T06:56:33.826Z,0.52
2023-05-01T06:57:33.873Z,0.52
2023-05-01T06:58:33.872Z,0.53
2023-05-01T06:59:33.927Z,0.54
2023-05-01T07:00:33.954Z,0.54
2023-05-01T07:01:35.639Z,0.54
2023-05-01T07:02:34.125Z,0.53
2023-05-01T07:03:34.091Z,0.55
2023-05-01T07:04:34.070Z,0.53
2023-05-01T07:05:34.161Z,0.54
2023-05-01T07:06:34.205Z,0.53
2023-05-01T07:07:34.193Z,0.52
2023-05-01T07:08:34.277Z,0.55
2023-05-01T07:09:34.235Z,0.53
2023-05-01T07:10:34.299Z,0.52
2023-05-01T07:11:34.304Z,0.53
2023-05-01T07:12:34.337Z,0.53
2023-05-01T07:13:34.348Z,0.52
2023-05-01T07:14:34.377Z,0.55
2023-05-01T07:15:34.409Z,0.53
2023-05-01T07:16:34.538Z,0.53
2023-05-01T07:17:34.638Z,0.54
2023-05-01T07:18:34.514Z,0.57
2023-05-01T07:19:34.591Z,0.53
2023-05-01T07:20:34.606Z,0.53
2023-05-01T07:21:34.590Z,0.52
2023-05-01T07:22:34.705Z,0.55
2023-05-01T07:23:34.635Z,0.55
2023-05-01T07:24:34.676Z,0.53
2023-05-01T07:25:34.670Z,0.54
2023-05-01T07:26:34.716Z,0.55
2023-05-01T07:27:34.740Z,0.56
2023-05-01T07:28:34.806Z,0.54
2023-05-01T07:29:34.805Z,0.53
2023-05-01T07:30:34.826Z,0.54
2023-05-01T07:31:34.896Z,0.52
2023-05-01T07:32:34.991Z,0.53
2023-05-01T07:33:34.888Z,0.54
2023-05-01T07:34:34.931Z,0.53
2023-05-01T07:35:35.047Z,0.55
2023-05-01T07:36:35.642Z,0.53
2023-05-01T07:37:35.060Z,0.56
2023-05-01T07:38:35.128Z,0.54
2023-05-01T07:39:35.103Z,0.52
2023-05-01T07:40:35.160Z,0.55
2023-05-01T07:41:35.201Z,0.54
2023-05-01T07:42:35.201Z,0.54
2023-05-01T07:43:35.380Z,0.54
2023-05-01T07:44:35.246Z,0.53
2023-05-01T07:45:35.354Z,0.54
2023-05-01T07:46:35.435Z,0.53
2023-05-01T07:47:35.408Z,0.54
2023-05-01T07:48:36.956Z,0.53
2023-05-01T07:49:35.392Z,0.55
2023-05-01T07:50:35.444Z,0.54
2023-05-01T07:51:35.353Z,0.54
2023-05-01T07:52:35.403Z,0.55
2023-05-01T07:53:35.384Z,0.52
2023-05-01T07:54:35.323Z,0.56
2023-05-01T07:55:35.351Z,0.54
2023-05-01T07:56:35.317Z,0.53
2023-05-01T07:57:35.342Z,0.54
2023-05-01T07:58:35.300Z,0.54
2023-05-01T07:59:35.301Z,0.52
2023-05-01T08:00:35.307Z,0.54
2023-05-01T08:01:35.275Z,0.53
2023-05-01T08:02:35.382Z,0.53
2023-05-01T08:03:35.366Z,0.52
2023-05-01T08:04:35.303Z,0.52
2023-05-01T08:05:35.244Z,0.53
2023-05-01T08:06:35.279Z,0.52
2023-05-01T08:07:35.238Z,0.53
2023-05-01T08:08:35.240Z,0.54
2023-05-01T08:09:35.215Z,0.52
2023-05-01T08:10:35.231Z,0.54
2023-05-01T08:11:35.221Z,0.53
2023-05-01T08:12:35.223Z,0.54
2023-05-01T08:13:35.213Z,0.53
2023-05-01T08:14:35.208Z,0.53
2023-05-01T08:15:35.251Z,0.53
2023-05-01T08:16:35.326Z,0.53
2023-05-01T08:17:35.208Z,0.53
2023-05-01T08:18:35.206Z,0.53
2023-05-01T08:19:35.160Z,0.54
2023-05-01T08:20:35.160Z,0.53
2023-05-01T08:21:35.155Z,0.52
2023-05-01T08:22:35.170Z,0.54
2023-05-01T08:23:35.130Z,0.52
2023-05-01T08:24:35.151Z,0.50
2023-05-01T08:25:35.121Z,0.52
2023-05-01T08:26:35.111Z,0.52
2023-05-01T08:27:35.113Z,0.54
2023-05-01T08:28:35.105Z,0.53
2023-05-01T08:29:35.104Z,0.55
2023-05-01T08:30:35.075Z,0.53
2023-05-01T08:31:35.156Z,0.55
2023-05-01T08:32:35.117Z,0.52
2023-05-01T08:33:35.084Z,0.54
2023-05-01T08:34:35.053Z,0.55
2023-05-01T08:35:35.049Z,0.53
2023-05-01T08:36:35.051Z,0.52
2023-05-01T08:37:35.049Z,0.52
2023-05-01T08:38:35.088Z,0.52
2023-05-01T08:39:35.053Z,0.53
2023-05-01T08:40:35.042Z,0.53
2023-05-01T08:41:35.026Z,0.52
2023-05-01T08:42:35.034Z,0.53
2023-05-01T08:43:35.036Z,0.51
2023-05-01T08:44:35.014Z,0.55
2023-05-01T08:45:34.997Z,0.51
2023-05-01T08:46:35.056Z,0.55
2023-05-01T08:47:35.057Z,0.52
2023-05-01T08:48:34.964Z,0.52
2023-05-01T08:49:34.966Z,0.54
2023-05-01T08:50:34.941Z,0.53
2023-05-01T08:51:34.955Z,0.54
2023-05-01T08:52:34.970Z,0.54
2023-05-01T08:53:34.941Z,0.51
2023-05-01T08:54:34.968Z,0.53
2023-05-01T08:55:34.976Z,0.53
2023-05-01T08:56:34.998Z,0.52
2023-05-01T08:57:35.015Z,0.53
2023-05-01T08:58:35.043Z,0.55
2023-05-01T08:59:35.052Z,0.53
2023-05-01T09:00:35.127Z,0.53
2023-05-01T09:01:35.121Z,0.53
2023-05-01T09:02:35.226Z,0.53
2023-05-01T09:03:35.187Z,0.52
2023-05-01T09:04:35.195Z,0.51
2023-05-01T09:05:35.206Z,0.54
2023-05-01T09:06:35.291Z,0.52
2023-05-01T09:07:35.262Z,0.52
2023-05-01T09:08:35.318Z,0.54
2023-05-01T09:09:35.288Z,0.53
2023-05-01T09:10:35.305Z,0.53
2023-05-01T09:11:35.322Z,0.55
2023-05-01T09:12:35.389Z,0.52
2023-05-01T09:13:35.378Z,0.54
2023-05-01T09:14:35.444Z,0.51
2023-05-01T09:15:35.412Z,0.54
2023-05-01T09:16:35.540Z,0.53
2023-05-01T09:17:35.504Z,0.55
2023-05-01T09:18:35.479Z,0.52
2023-05-01T09:19:35.492Z,0.50
2023-05-01T09:20:35.504Z,0.51
2023-05-01T09:21:35.527Z,0.53
2023-05-01T09:22:36.146Z,0.52
2023-05-01T09:23:35.560Z,0.54
2023-05-01T09:24:35.599Z,0.54
2023-05-01T09:25:35.600Z,0.51
2023-05-01T09:26:35.631Z,0.54
2023-05-01T09:27:35.671Z,0.54
2023-05-01T09:28:35.670Z,0.54
2023-05-01T09:29:35.672Z,0.51
2023-05-01T09:30:35.701Z,0.54
2023-05-01T09:31:35.736Z,0.52
2023-05-01T09:32:35.748Z,0.52
2023-05-01T09:33:35.751Z,0.52
2023-05-01T09:34:35.756Z,0.52
2023-05-01T09:35:35.786Z,0.53
2023-05-01T09:36:35.794Z,0.54
2023-05-01T09:37:35.826Z,0.53
2023-05-01T09:38:35.847Z,0.52
2023-05-01T09:39:35.842Z,0.51
2023-05-01T09:40:35.864Z,0.54
2023-05-01T09:41:35.896Z,0.54
2023-05-01T09:42:35.918Z,0.52
2023-05-01T09:43:35.975Z,0.53
2023-05-01T09:44:35.948Z,0.53
2023-05-01T09:45:36.046Z,0.54
2023-05-01T09:46:35.983Z,0.53
2023-05-01T09:47:35.966Z,0.52
2023-05-01T09:48:36.381Z,0.52
2023-05-01T09:49:35.977Z,0.54
2023-05-01T09:50:36.008Z,0.52
2023-05-01T09:51:35.974Z,0.52
2023-05-01T09:52:36.163Z,0.51
2023-05-01T09:53:36.023Z,0.54
2023-05-01T09:54:36.023Z,0.51
2023-05-01T09:55:36.072Z,0.52
2023-05-01T09:56:36.054Z,0.52
2023-05-01T09:57:36.078Z,0.52
2023-05-01T09:58:36.061Z,0.52
2023-05-01T09:59:36.077Z,0.52
2023-05-01T10:00:36.086Z,0.52
2023-05-01T10:01:36.099Z,0.54
2023-05-01T10:02:36.217Z,0.53
2023-05-01T10:03:36.247Z,0.52
2023-05-01T10:04:36.128Z,0.53
2023-05-01T10:05:36.116Z,0.55
2023-05-01T10:06:36.181Z,0.54
2023-05-01T10:07:36.153Z,0.53
2023-05-01T10:08:36.238Z,0.53
2023-05-01T10:09:36.153Z,0.52
2023-05-01T10:10:36.189Z,0.53
2023-05-01T10:11:36.177Z,0.53
2023-05-01T10:12:36.212Z,0.53
2023-05-01T10:13:36.247Z,0.54
2023-05-01T10:14:36.210Z,0.52
2023-05-01T10:15:36.222Z,0.53
2023-05-01T10:16:36.248Z,0.53
2023-05-01T10:17:36.319Z,0.53
2023-05-01T10:18:36.263Z,0.52
2023-05-01T10:19:36.291Z,0.51
2023-05-01T10:20:36.301Z,0.53
2023-05-01T10:21:36.398Z,0.52
2023-05-01T10:22:36.353Z,0.53
2023-05-01T10:23:36.343Z,0.53
2023-05-01T10:24:36.314Z,0.52
2023-05-01T10:25:36.346Z,0.53
2023-05-01T10:26:36.345Z,0.53
2023-05-01T10:27:36.404Z,0.52
2023-05-01T10:28:36.409Z,0.53
2023-05-01T10:29:36.374Z,0.53
2023-05-01T10:30:36.401Z,0.52
2023-05-01T10:31:36.492Z,0.54
2023-05-01T10:32:36.591Z,0.52
2023-05-01T10:33:36.496Z,0.53
2023-05-01T10:34:36.435Z,0.54
2023-05-01T10:35:36.471Z,0.52
2023-05-01T10:36:36.460Z,0.52
2023-05-01T10:37:36.704Z,0.52
2023-05-01T10:38:36.498Z,0.53
2023-05-01T10:39:36.511Z,0.53
2023-05-01T10:40:36.494Z,0.53
2023-05-01T10:41:36.490Z,0.53
2023-05-01T10:42:36.527Z,0.53
2023-05-01T10:43:36.512Z,0.52
2023-05-01T10:44:36.516Z,0.52
2023-05-01T10:45:36.544Z,0.52
2023-05-01T10:46:36.595Z,0.52
2023-05-01T10:47:36.599Z,0.53
2023-05-01T10:48:36.554Z,0.52
2023-05-01T10:49:36.546Z,0.53
2023-05-01T10:50:36.553Z,0.54
2023-05-01T10:51:36.589Z,0.52
2023-05-01T10:52:36.644Z,0.52
2023-05-01T10:53:36.597Z,0.53
2023-05-01T10:54:36.600Z,0.52
2023-05-01T10:55:36.624Z,0.53
2023-05-01T10:56:36.664Z,0.53
2023-05-01T10:57:36.639Z,0.53
2023-05-01T10:58:37.176Z,0.53
2023-05-01T10:59:36.666Z,0.52
2023-05-01T11:00:36.691Z,0.52
2023-05-01T11:01:36.840Z,0.55
2023-05-01T11:02:36.768Z,0.53
2023-05-01T11:03:36.766Z,0.58
2023-05-01T11:04:36.729Z,0.55
2023-05-01T11:05:38.645Z,0.57
2023-05-01T11:06:36.879Z,0.57
2023-05-01T11:07:36.774Z,0.56
2023-05-01T11:08:36.797Z,0.54
2023-05-01T11:09:36.797Z,0.54
2023-05-01T11:10:36.778Z,0.54
2023-05-01T11:11:36.820Z,0.51
2023-05-01T11:12:36.833Z,0.53
2023-05-01T11:13:36.858Z,0.53
2023-05-01T11:14:36.872Z,0.52
2023-05-01T11:15:36.926Z,0.55
2023-05-01T11:16:36.924Z,0.57
2023-05-01T11:17:37.018Z,0.59
2023-05-01T11:18:36.979Z,0.60
2023-05-01T11:19:36.898Z,0.62
2023-05-01T11:20:36.983Z,0.66
2023-05-01T11:21:36.947Z,0.68
2023-05-01T11:22:37.013Z,0.71
2023-05-01T11:23:36.959Z,0.72
2023-05-01T11:24:36.981Z,0.74
2023-05-01T11:25:36.963Z,0.73
2023-05-01T11:26:36.975Z,0.73
2023-05-01T11:27:37.001Z,0.73
2023-05-01T11:28:37.013Z,0.69
2023-05-01T11:29:37.051Z,0.70
2023-05-01T11:30:37.034Z,0.72
2023-05-01T11:31:37.096Z,0.72
2023-05-01T11:32:37.113Z,0.72
2023-05-01T11:33:37.053Z,0.71
2023-05-01T11:34:37.706Z,0.69
2023-05-01T11:35:37.066Z,0.71
2023-05-01T11:36:37.098Z,0.71
2023-05-01T11:37:37.126Z,0.72
2023-05-01T11:38:37.127Z,0.69
2023-05-01T11:39:37.140Z,0.70
2023-05-01T11:40:37.131Z,0.71
2023-05-01T11:41:37.164Z,0.71
2023-05-01T11:42:37.212Z,0.74
2023-05-01T11:43:37.194Z,0.71
2023-05-01T11:44:37.222Z,0.71
2023-05-01T11:45:37.576Z,0.70
2023-05-01T11:46:37.260Z,0.71
2023-05-01T11:47:37.283Z,0.71
2023-05-01T11:48:37.231Z,0.71
2023-05-01T11:49:37.242Z,0.70
2023-05-01T11:50:37.265Z,0.68
2023-05-01T11:51:37.255Z,0.70
2023-05-01T11:52:37.276Z,0.72
2023-05-01T11:53:37.321Z,0.70
2023-05-01T11:54:37.340Z,0.72
2023-05-01T11:55:37.334Z,0.69
2023-05-01T11:56:37.355Z,0.69
2023-05-01T11:57:37.373Z,0.71
2023-05-01T11:58:37.393Z,0.69
2023-05-01T11:59:37.416Z,0.70
2023-05-01T12:00:37.464Z,0.69
2023-05-01T12:01:37.429Z,0.69
2023-05-01T12:02:37.541Z,0.70
2023-05-01T12:03:37.590Z,0.71
2023-05-01T12:04:37.578Z,0.70
2023-05-01T12:05:37.597Z,0.71
2023-05-01T12:06:37.548Z,0.68
2023-05-01T12:07:37.543Z,0.69
2023-05-01T12:08:37.613Z,0.67
2023-05-01T12:09:37.567Z,0.69
2023-05-01T12:10:37.592Z,0.66
2023-05-01T12:11:37.557Z,0.68
2023-05-01T12:12:37.579Z,0.69
2023-05-01T12:13:37.582Z,0.68
2023-05-01T12:14:37.596Z,0.68
2023-05-01T12:15:37.611Z,0.69
2023-05-01T12:16:37.718Z,0.70
2023-05-01T12:17:37.700Z,0.70
2023-05-01T12:18:37.667Z,0.68
2023-05-01T12:19:37.657Z,0.71
2023-05-01T12:20:37.687Z,0.67
2023-05-01T12:21:37.650Z,0.69
2023-05-01T12:22:37.655Z,0.67
2023-05-01T12:23:37.719Z,0.68
2023-05-01T12:24:37.692Z,0.67
2023-05-01T12:25:37.689Z,0.66
2023-05-01T12:26:37.705Z,0.67
2023-05-01T12:27:37.701Z,0.66
2023-05-01T12:28:37.770Z,0.68
2023-05-01T12:29:37.744Z,0.70
2023-05-01T12:30:37.746Z,0.69
2023-05-01T12:31:37.769Z,0.68
2023-05-01T12:32:37.799Z,0.66
2023-05-01T12:33:38.205Z,0.69
2023-05-01T12:34:37.764Z,0.67
2023-05-01T12:35:37.772Z,0.67
2023-05-01T12:36:37.816Z,0.66
2023-05-01T12:37:37.781Z,0.65
2023-05-01T12:38:37.789Z,0.66
2023-05-01T12:39:37.796Z,0.68
2023-05-01T12:40:37.814Z,0.65
2023-05-01T12:41:37.864Z,0.69
2023-05-01T12:42:37.829Z,0.68
2023-05-01T12:43:37.850Z,0.66
2023-05-01T12:44:37.839Z,0.66
2023-05-01T12:45:37.825Z,0.65
2023-05-01T12:46:37.856Z,0.65
2023-05-01T12:47:37.874Z,0.67
2023-05-01T12:48:37.889Z,0.65
2023-05-01T12:49:37.829Z,0.67
2023-05-01T12:50:37.855Z,0.67
2023-05-01T12:51:37.858Z,0.67
2023-05-01T12:52:37.861Z,0.66
2023-05-01T12:53:37.860Z,0.65
2023-05-01T12:54:37.872Z,0.65
2023-05-01T12:55:37.884Z,0.64
2023-05-01T12:56:37.897Z,0.65
2023-05-01T12:57:37.891Z,0.64
2023-05-01T12:58:38.185Z,0.64
2023-05-01T12:59:37.918Z,0.64
2023-05-01T13:00:37.930Z,0.65
2023-05-01T13:01:37.978Z,0.65
2023-05-01T13:02:37.966Z,0.64
2023-05-01T13:03:40.605Z,0.64
2023-05-01T13:04:37.953Z,0.66
2023-05-01T13:05:37.950Z,0.65
2023-05-01T13:06:38.044Z,0.64
2023-05-01T13:07:37.956Z,0.64
2023-05-01T13:08:37.924Z,0.65
2023-05-01T13:09:37.922Z,0.64
2023-05-01T13:10:37.933Z,0.63
2023-05-01T13:11:37.895Z,0.64
2023-05-01T13:12:37.927Z,0.63
2023-05-01T13:13:37.939Z,0.64
2023-05-01T13:14:37.877Z,0.63
2023-05-01T13:15:37.859Z,0.65
2023-05-01T13:16:37.882Z,0.64
2023-05-01T13:17:37.901Z,0.62
2023-05-01T13:18:37.868Z,0.61